createdAt,value
2018-09-18T00:00:28.742Z,4.83
2018-09-18T00:03:04.062Z,5.33
2018-09-18T00:05:32.579Z,5.00
2018-09-18T00:08:01.035Z,5.40
2018-09-18T00:10:29.610Z,4.90
2018-09-18T00:12:58.005Z,5.13
2018-09-18T00:15:26.812Z,4.90
2018-09-18T00:17:55.341Z,4.83
2018-09-18T00:20:23.806Z,4.83
2018-09-18T00:22:52.272Z,4.90
2018-09-18T00:25:20.766Z,4.87
2018-09-18T00:27:49.140Z,4.47
2018-09-18T00:30:17.617Z,5.37
2018-09-18T00:32:46.242Z,4.50
2018-09-18T00:35:14.885Z,5.50
2018-09-18T00:37:43.356Z,4.60
2018-09-18T00:40:11.822Z,5.20
2018-09-18T00:42:40.332Z,4.93
2018-09-18T00:45:08.818Z,4.90
2018-09-18T00:47:37.305Z,4.80
2018-09-18T00:50:06.330Z,5.10
2018-09-18T00:52:34.968Z,5.73
2018-09-18T00:55:03.321Z,4.80
2018-09-18T00:57:31.938Z,5.53
2018-09-18T01:00:00.394Z,5.20
2018-09-18T01:02:29.036Z,4.93
2018-09-18T01:04:57.411Z,4.90
2018-09-18T01:07:25.984Z,4.77
2018-09-18T01:09:54.769Z,4.83
2018-09-18T01:12:23.235Z,5.13
2018-09-18T01:14:51.692Z,5.07
2018-09-18T01:17:20.316Z,5.10
2018-09-18T01:19:48.893Z,5.00
2018-09-18T01:22:17.403Z,5.10
2018-09-18T01:24:45.964Z,5.10
2018-09-18T01:27:14.388Z,5.00
2018-09-18T01:29:43.063Z,4.77
2018-09-18T01:32:11.556Z,5.10
2018-09-18T01:34:40.108Z,5.73
2018-09-18T01:37:15.354Z,5.13
2018-09-18T01:39:43.836Z,5.03
2018-09-18T01:42:12.336Z,5.10
2018-09-18T01:44:40.777Z,4.83
2018-09-18T01:47:09.221Z,5.37
2018-09-18T01:49:37.669Z,5.27
2018-09-18T01:52:06.463Z,4.67
2018-09-18T01:54:35.055Z,5.23
2018-09-18T01:57:03.543Z,5.00
2018-09-18T01:59:31.823Z,4.87
2018-09-18T02:02:00.267Z,5.80
2018-09-18T02:04:28.660Z,5.53
2018-09-18T02:06:57.084Z,5.90
2018-09-18T02:09:25.504Z,6.47
2018-09-18T02:11:53.989Z,5.50
2018-09-18T02:14:22.461Z,5.23
2018-09-18T02:16:50.930Z,5.60
2018-09-18T02:19:19.442Z,5.17
2018-09-18T02:21:47.894Z,6.00
2018-09-18T02:24:16.396Z,5.83
2018-09-18T02:26:44.915Z,5.30
2018-09-18T02:29:13.374Z,5.37
2018-09-18T02:34:25.874Z,5.27
2018-09-18T02:36:54.285Z,5.37
2018-09-18T02:39:22.702Z,5.10
2018-09-18T02:41:51.233Z,5.33
2018-09-18T02:44:19.840Z,5.50
2018-09-18T02:46:50.619Z,5.63
2018-09-18T02:49:19.098Z,6.00
2018-09-18T02:51:47.733Z,5.60
2018-09-18T02:54:16.202Z,5.70
2018-09-18T02:56:44.693Z,6.20
2018-09-18T02:59:13.104Z,6.30
2018-09-18T03:01:41.508Z,6.10
2018-09-18T03:04:09.986Z,5.50
2018-09-18T03:06:38.547Z,5.63
2018-09-18T03:09:08.560Z,5.83
2018-09-18T03:11:37.116Z,5.77
2018-09-18T03:14:10.143Z,5.97
2018-09-18T03:16:38.692Z,6.30
2018-09-18T03:19:07.074Z,5.57
2018-09-18T03:21:35.450Z,5.70
2018-09-18T03:24:04.066Z,6.00
2018-09-18T03:26:41.379Z,6.30
2018-09-18T03:29:16.797Z,5.87
2018-09-18T03:31:54.713Z,6.67
2018-09-18T03:34:34.020Z,6.20
2018-09-18T03:37:22.502Z,5.73
2018-09-18T03:40:04.142Z,5.40
2018-09-18T03:42:48.037Z,5.83
2018-09-18T03:45:25.658Z,5.73
2018-09-18T03:48:01.129Z,6.17
2018-09-18T03:50:29.490Z,6.00
2018-09-18T03:52:57.888Z,5.97
2018-09-18T03:55:26.228Z,5.77
2018-09-18T03:57:54.653Z,6.00
2018-09-18T04:00:29.721Z,6.37
2018-09-18T04:02:59.091Z,6.33
2018-09-18T04:05:27.514Z,6.03
2018-09-18T04:07:55.930Z,6.13
2018-09-18T04:10:30.774Z,5.73
2018-09-18T04:12:59.177Z,5.73
2018-09-18T04:15:34.204Z,5.63
2018-09-18T04:18:02.610Z,5.80
2018-09-18T04:20:31.015Z,6.00
2018-09-18T04:22:59.443Z,6.67
2018-09-18T04:25:27.919Z,6.40
2018-09-18T04:27:56.309Z,6.37
2018-09-18T04:30:24.675Z,6.07
2018-09-18T04:32:53.195Z,6.50
2018-09-18T04:35:21.669Z,6.27
2018-09-18T04:37:50.094Z,6.07
2018-09-18T04:40:18.561Z,6.63
2018-09-18T04:42:47.156Z,6.50
2018-09-18T04:45:15.883Z,7.40
2018-09-18T04:47:44.425Z,6.50
2018-09-18T04:50:12.900Z,5.97
2018-09-18T04:52:41.756Z,6.63
2018-09-18T04:55:10.147Z,6.60
2018-09-18T04:57:38.687Z,6.10
2018-09-18T05:00:08.150Z,5.73
2018-09-18T05:02:36.721Z,6.07
2018-09-18T05:05:10.696Z,5.90
2018-09-18T05:07:40.056Z,6.60
2018-09-18T05:10:14.621Z,5.53
2018-09-18T05:12:48.420Z,5.83
2018-09-18T05:15:23.427Z,6.20
2018-09-18T05:20:48.315Z,6.13
2018-09-18T05:23:19.372Z,6.20
2018-09-18T05:41:03.845Z,6.37
2018-09-18T05:43:40.322Z,6.30
2018-09-18T05:46:26.155Z,6.03
2018-09-18T05:48:55.838Z,6.00
2018-09-18T05:55:03.689Z,6.77
2018-09-18T06:01:27.025Z,7.50
2018-09-18T06:04:17.055Z,5.93
2018-09-18T06:07:24.919Z,6.43
2018-09-18T06:10:06.668Z,6.63
2018-09-18T06:12:58.397Z,6.77
2018-09-18T06:19:16.905Z,7.03
2018-09-18T06:22:46.057Z,7.23
2018-09-18T06:34:53.647Z,7.13
2018-09-18T06:37:46.379Z,6.67
2018-09-18T06:40:27.149Z,6.70
2018-09-18T06:45:47.794Z,7.37
2018-09-18T06:51:05.375Z,6.53
2018-09-18T06:53:42.120Z,6.20
2018-09-18T06:56:41.694Z,6.13
2018-09-18T07:15:40.859Z,6.80
2018-09-18T07:21:20.014Z,6.07
2018-09-18T07:23:59.953Z,6.57
2018-09-18T07:26:35.312Z,6.50
2018-09-18T07:29:12.732Z,5.90
2018-09-18T07:31:44.468Z,6.30
2018-09-18T07:34:28.035Z,6.00
2018-09-18T07:38:35.255Z,5.63
2018-09-18T09:28:50.146Z,4.30
2018-09-18T09:31:44.905Z,4.37
2018-09-18T09:59:19.947Z,4.97
2018-09-18T10:02:05.237Z,5.00
2018-09-18T10:08:24.810Z,4.83
2018-09-18T12:05:45.849Z,18.40
2018-09-18T12:08:14.705Z,6.73
2018-09-18T12:10:44.152Z,7.07
2018-09-18T12:13:16.577Z,7.97
2018-09-18T12:15:45.578Z,5.20
2018-09-18T12:18:16.444Z,20.80
2018-09-18T12:20:45.468Z,3.83
2018-09-18T12:23:17.300Z,3.23
2018-09-18T12:25:47.366Z,3.73
2018-09-18T12:28:19.147Z,5.67
2018-09-18T12:30:51.787Z,4.40
2018-09-18T12:33:22.984Z,6.17
2018-09-18T12:35:54.213Z,4.10
2018-09-18T12:38:26.272Z,3.53
2018-09-18T12:40:56.703Z,3.80
2018-09-18T12:43:29.403Z,3.63
2018-09-18T12:48:59.444Z,4.63
2018-09-18T12:51:27.895Z,3.83
2018-09-18T12:53:56.237Z,3.27
2018-09-18T12:56:24.638Z,3.47
2018-09-18T12:58:53.101Z,4.10
2018-09-18T13:01:21.674Z,3.47
2018-09-18T13:03:50.553Z,3.80
2018-09-18T13:06:19.264Z,3.50
2018-09-18T13:08:47.601Z,3.40
2018-09-18T13:11:16.070Z,3.23
2018-09-18T13:13:44.545Z,3.17
2018-09-18T13:16:19.584Z,3.20
2018-09-18T13:18:48.302Z,3.67
2018-09-18T13:21:16.807Z,3.00
2018-09-18T13:23:46.026Z,3.30
2018-09-18T13:26:14.556Z,3.07
2018-09-18T13:28:43.034Z,3.23
2018-09-18T13:31:11.688Z,3.60
2018-09-18T13:33:40.299Z,2.90
2018-09-18T13:36:08.753Z,2.93
2018-09-18T13:38:37.130Z,4.00
2018-09-18T13:41:05.559Z,3.40
2018-09-18T13:43:33.950Z,2.80
2018-09-18T13:46:02.449Z,3.37
2018-09-18T13:48:31.127Z,2.77
2018-09-18T13:51:00.471Z,3.67
2018-09-18T13:53:29.621Z,4.17
2018-09-18T13:55:58.364Z,4.80
2018-09-18T13:58:26.904Z,4.80
2018-09-18T14:00:55.751Z,3.50
2018-09-18T14:03:24.291Z,3.43
2018-09-18T14:05:52.737Z,3.70
2018-09-18T14:08:21.332Z,3.40
2018-09-18T14:10:49.790Z,3.50
2018-09-18T14:13:18.241Z,4.43
2018-09-18T14:15:46.686Z,3.83
2018-09-18T14:18:15.867Z,3.47
2018-09-18T14:51:02.902Z,3.50
2018-09-18T15:02:37.674Z,3.60
2018-09-18T15:05:11.698Z,3.63
2018-09-18T16:14:36.177Z,4.67
2018-09-18T16:17:04.739Z,4.53
2018-09-18T16:19:45.481Z,4.27
2018-09-18T16:22:22.897Z,4.50
2018-09-18T16:25:04.171Z,4.30
2018-09-18T16:27:40.157Z,3.60
2018-09-18T16:30:13.508Z,4.63
2018-09-18T16:48:51.472Z,7.73
2018-09-18T16:55:02.477Z,7.37
2018-09-18T16:58:11.393Z,5.63
2018-09-18T17:00:52.344Z,5.23
2018-09-18T17:03:31.687Z,5.70
2018-09-18T17:06:11.083Z,6.93
2018-09-18T17:08:41.940Z,6.30
2018-09-18T17:11:12.325Z,10.37
2018-09-18T17:13:48.941Z,5.70
2018-09-18T17:16:28.931Z,8.77
2018-09-18T17:19:24.920Z,7.17
2018-09-18T17:24:40.070Z,7.07
2018-09-18T17:27:13.832Z,6.30
2018-09-18T17:29:44.114Z,6.27
2018-09-18T17:32:12.662Z,8.20
2018-09-18T17:34:41.533Z,7.40
2018-09-18T17:37:10.573Z,11.03
2018-09-18T17:39:39.267Z,8.53
2018-09-18T17:42:07.891Z,10.03
2018-09-18T17:44:36.514Z,10.13
2018-09-18T17:47:05.028Z,9.00
2018-09-18T17:49:35.311Z,9.70
2018-09-18T17:52:11.411Z,10.73
2018-09-18T17:54:41.192Z,9.87
2018-09-18T17:57:15.329Z,9.57
2018-09-18T18:00:18.592Z,7.90
2018-09-18T18:02:47.271Z,8.40
2018-09-18T18:05:21.476Z,7.70
2018-09-18T18:07:50.950Z,8.50
2018-09-18T18:10:20.677Z,8.20
2018-09-18T18:12:50.195Z,8.57
2018-09-18T18:15:20.319Z,8.63
2018-09-18T18:17:49.670Z,7.40
2018-09-18T18:20:18.362Z,8.50
2018-09-18T18:22:46.986Z,9.20
2018-09-18T18:25:15.537Z,11.03
2018-09-18T18:27:45.135Z,11.60
2018-09-18T18:33:14.830Z,9.37
2018-09-18T18:35:45.214Z,9.27
2018-09-18T18:38:17.223Z,8.60
2018-09-18T18:41:01.287Z,10.30
2018-09-18T18:43:33.528Z,9.60
2018-09-18T18:46:06.646Z,8.40
2018-09-18T18:48:39.048Z,7.93
2018-09-18T18:51:12.466Z,7.60
2018-09-18T18:53:44.316Z,6.33
2018-09-18T18:56:13.039Z,8.23
2018-09-18T18:58:42.103Z,7.43
2018-09-18T19:01:10.879Z,7.67
2018-09-18T19:03:46.293Z,8.17
2018-09-18T19:06:15.217Z,7.23
2018-09-18T19:08:44.059Z,7.67
2018-09-18T19:11:13.501Z,7.77
2018-09-18T19:13:49.048Z,8.00
2018-09-18T19:16:18.008Z,7.30
2018-09-18T19:18:47.117Z,8.47
2018-09-18T19:21:16.088Z,6.70
2018-09-18T19:23:44.855Z,7.70
2018-09-18T19:26:18.837Z,9.17
2018-09-18T19:28:47.585Z,8.33
2018-09-18T19:31:23.393Z,8.80
2018-09-18T19:33:52.537Z,8.10
2018-09-18T19:36:21.323Z,7.57
2018-09-18T19:39:16.833Z,6.33
2018-09-18T19:41:48.095Z,7.23
2018-09-18T19:44:18.178Z,8.70
2018-09-18T19:46:49.093Z,7.93
2018-09-18T19:49:18.375Z,8.63
2018-09-18T19:51:47.146Z,6.97
2018-09-18T19:54:16.722Z,7.20
2018-09-18T19:56:46.266Z,8.27
2018-09-18T19:59:18.353Z,7.20
2018-09-18T20:01:53.207Z,6.90
2018-09-18T20:04:23.150Z,6.23
2018-09-18T20:06:53.128Z,6.70
2018-09-18T20:09:22.980Z,7.10
2018-09-18T20:11:54.104Z,6.53
2018-09-18T20:14:33.797Z,6.93
2018-09-18T20:17:08.244Z,6.53
2018-09-18T20:19:38.972Z,8.63
2018-09-18T20:22:09.828Z,7.10
2018-09-18T20:24:40.568Z,7.10
2018-09-18T20:27:09.761Z,6.90
2018-09-18T20:29:38.552Z,6.67
2018-09-18T20:32:07.964Z,6.70
2018-09-18T20:34:37.932Z,6.87
2018-09-18T20:37:07.200Z,7.87
2018-09-18T20:39:43.307Z,6.80
2018-09-18T20:42:37.672Z,6.80
2018-09-18T20:45:12.556Z,6.73
2018-09-18T20:47:42.349Z,6.80
2018-09-18T20:50:18.338Z,7.07
2018-09-18T20:52:56.143Z,6.50
2018-09-18T20:55:44.415Z,7.30
2018-09-18T21:00:58.635Z,6.70
2018-09-18T21:03:28.429Z,6.90
2018-09-18T21:05:59.519Z,8.10
2018-09-18T21:08:28.554Z,7.27
2018-09-18T21:10:58.892Z,6.97
2018-09-18T21:13:29.894Z,7.23
2018-09-18T21:15:59.198Z,6.30
2018-09-18T21:18:28.459Z,6.83
2018-09-18T21:21:01.140Z,6.60
2018-09-18T21:23:31.894Z,7.23
2018-09-18T21:26:06.288Z,7.33
2018-09-18T21:29:42.025Z,7.00
2018-09-18T21:32:11.544Z,9.07
2018-09-18T21:34:52.412Z,6.87
2018-09-18T21:37:27.938Z,7.87
2018-09-18T21:39:58.390Z,7.87
2018-09-18T21:42:27.068Z,7.40
2018-09-18T21:44:55.549Z,6.97
2018-09-18T21:47:24.344Z,7.23
2018-09-18T21:49:52.866Z,6.70
2018-09-18T21:52:21.498Z,7.03
2018-09-18T21:54:49.943Z,8.23
2018-09-18T21:57:20.096Z,7.27
2018-09-18T21:59:49.389Z,8.20
2018-09-18T22:02:18.252Z,8.80
2018-09-18T22:04:46.748Z,7.63
2018-09-18T22:07:15.466Z,8.17
2018-09-18T22:09:44.028Z,8.23
2018-09-18T22:12:12.908Z,7.10
2018-09-18T22:14:43.265Z,7.27
2018-09-18T22:17:11.852Z,8.43
2018-09-18T22:19:40.756Z,7.80
2018-09-18T22:22:09.366Z,8.23
2018-09-18T22:24:37.825Z,7.73
2018-09-18T22:27:06.472Z,8.23
2018-09-18T22:29:35.165Z,7.93
2018-09-18T22:32:05.345Z,8.43
2018-09-18T22:34:33.930Z,8.43
2018-09-18T22:37:03.653Z,8.30
2018-09-18T22:39:39.233Z,8.23
2018-09-18T22:42:08.771Z,8.67
2018-09-18T22:44:37.490Z,7.77
2018-09-18T22:47:06.386Z,7.70
2018-09-18T22:49:36.973Z,8.93
2018-09-18T22:52:12.191Z,9.73
2018-09-18T22:54:40.908Z,9.37
2018-09-18T22:57:09.432Z,8.50
2018-09-18T22:59:38.065Z,7.97
2018-09-18T23:02:06.600Z,8.50
2018-09-18T23:04:35.083Z,6.97
2018-09-18T23:07:03.487Z,7.57
2018-09-18T23:09:31.909Z,6.93
2018-09-18T23:12:00.335Z,6.87
2018-09-18T23:14:29.197Z,6.83
2018-09-18T23:16:57.723Z,6.10
2018-09-18T23:19:26.698Z,6.20
2018-09-18T23:21:55.232Z,5.87
2018-09-18T23:24:23.615Z,5.07
2018-09-18T23:26:52.035Z,5.23
2018-09-18T23:29:20.827Z,5.90
2018-09-18T23:31:49.206Z,5.30
2018-09-18T23:34:24.438Z,4.90
2018-09-18T23:36:52.825Z,5.83
2018-09-18T23:39:21.218Z,5.90
2018-09-18T23:41:50.048Z,5.97
2018-09-18T23:44:18.442Z,5.80
2018-09-18T23:46:46.811Z,7.20
2018-09-18T23:49:18.080Z,5.77
2018-09-18T23:51:46.559Z,6.03
2018-09-18T23:54:15.378Z,5.90
2018-09-18T23:56:44.065Z,5.57
2018-09-18T23:59:13.421Z,5.23
